KATL/ATL METAR and TAF weather

Enter ICAO airport designator
Station Type Date Time Source
KATL METAR 2020/02/24 22:52 UTC NOAA

KATL 242252Z 11007KT 1SM R09R/P6000FT RA BR OVC004 09/07 A2992 RMK AO2 SFC VIS 2 1/2 SLP133 CIG 003V005 P0009 T00890072


Station Type Date Time Source
KATL Decoded METAR 2020/02/24 22:52 UTC NOAA

HARTSFIELD-JACKSON ATLANTA, GA, United States (KATL) 33-39N 84-26W
Feb 24, 2020 - 05:52 PM EST / 2020.02.24 2252 UTC
Wind: from the ESE (110 degrees) at 8 MPH (7 KT):0
Visibility: 1 mile(s):0
Sky conditions: overcast
Weather: rain; mist
Precipitation last hour: 0.09 inches
Temperature: 48.0 F (8.9 C)
Dew Point: 45.0 F (7.2 C)
Relative Humidity: 89%
Pressure (altimeter): 29.92 in. Hg (1013 hPa)
ob: KATL 242252Z 11007KT 1SM R09R/P6000FT RA BR OVC004 09/07 A2992 RMK AO2 SFC VIS 2 1/2 SLP133 CIG 003V005 P0009 T00890072
cycle: 23

Station Type Date Time Source
KATL TAF 2020/02/24 22:57 UTC NOAA

TAF
AMD KATL 242154Z 2422/2524 10007KT 4SM -RA BR OVC004
FM250100 15007KT 2SM -SHRA BR OVC003
FM251000 24006KT 4SM -SHRA BR OVC004
FM251400 26006KT P6SM SCT008 BKN015
FM251800 26007KT P6SM SCT040

Example: see airport list